Time,TemperatureF,DewpointF,PressureIn,WindDirection,WindDirectionDegrees,WindSpeedMPH,WindSpeedGustMPH,Humidity,HourlyPrecipIn,Conditions,Clouds,dailyrainin,SoftwareType,DateUTC
2013-10-20 00:13:00,59.0,58.0,29.94,West,281,0.0,0.0,95,0.00,,,0.01,,2013-10-20 05:13:00,
2013-10-20 00:23:00,59.0,58.0,29.95,West,281,0.0,0.0,95,0.00,,,0.01,,2013-10-20 05:23:00,
2013-10-20 00:43:00,58.0,57.0,29.94,West,281,0.0,0.0,95,0.00,,,0.01,,2013-10-20 05:43:00,
2013-10-20 00:52:00,58.0,57.0,29.94,West,281,0.0,0.0,96,0.00,,,0.01,,2013-10-20 05:52:00,
2013-10-20 01:13:00,58.0,57.0,29.95,West,281,0.0,0.0,97,0.00,,,0.01,,2013-10-20 06:13:00,
2013-10-20 01:22:00,58.0,57.0,29.94,West,281,0.0,0.0,97,0.00,,,0.01,,2013-10-20 06:22:00,
2013-10-20 01:52:00,58.0,57.0,29.95,West,281,0.0,0.0,97,0.00,,,0.01,,2013-10-20 06:52:00,
2013-10-20 02:12:00,58.0,57.0,29.95,West,281,0.0,0.0,97,0.00,,,0.01,,2013-10-20 07:12:00,
2013-10-20 02:22:00,57.0,56.0,29.95,West,281,0.0,0.0,97,0.00,,,0.01,,2013-10-20 07:22:00,
2013-10-20 02:42:00,56.0,55.0,29.94,West,281,0.0,0.0,97,0.00,,,0.01,,2013-10-20 07:42:00,
2013-10-20 02:52:00,56.0,55.0,29.95,West,281,0.0,0.0,97,0.00,,,0.01,,2013-10-20 07:52:00,
2013-10-20 03:11:00,55.0,54.0,29.94,West,281,0.0,0.0,98,0.00,,,0.01,,2013-10-20 08:11:00,
2013-10-20 03:22:00,55.0,54.0,29.94,West,281,0.0,0.0,98,0.00,,,0.01,,2013-10-20 08:22:00,
2013-10-20 03:42:00,55.0,54.0,29.94,West,281,0.0,0.0,97,0.00,,,0.01,,2013-10-20 08:42:00,
2013-10-20 03:52:00,55.0,54.0,29.94,West,281,0.0,1.0,98,0.00,,,0.01,,2013-10-20 08:52:00,
2013-10-20 04:11:00,55.0,54.0,29.94,West,262,0.0,0.0,98,0.00,,,0.01,,2013-10-20 09:11:00,
2013-10-20 04:21:00,55.0,54.0,29.94,WNW,284,0.0,1.0,98,0.00,,,0.01,,2013-10-20 09:21:00,
2013-10-20 04:43:00,55.0,54.0,29.95,WNW,283,0.0,0.0,98,0.00,,,0.01,,2013-10-20 09:43:00,
2013-10-20 04:53:00,55.0,54.0,29.95,West,281,0.0,0.0,98,0.00,,,0.01,,2013-10-20 09:53:00,
2013-10-20 05:13:00,55.0,54.0,29.95,East,89,0.0,1.0,98,0.00,,,0.01,,2013-10-20 10:13:00,
2013-10-20 05:23:00,55.0,54.0,29.95,ESE,116,0.0,1.0,98,0.00,,,0.01,,2013-10-20 10:23:00,
2013-10-20 05:53:00,54.0,53.0,29.95,ESE,111,0.0,1.0,98,0.00,,,0.01,,2013-10-20 10:53:00,
2013-10-20 06:12:00,54.0,53.0,29.96,ESE,120,0.0,2.0,98,0.00,,,0.01,,2013-10-20 11:12:00,
2013-10-20 06:22:00,55.0,54.0,29.96,SE,136,0.0,3.0,98,0.00,,,0.01,,2013-10-20 11:22:00,
2013-10-20 06:43:00,55.0,54.0,29.96,SE,126,0.0,2.0,98,0.00,,,0.01,,2013-10-20 11:43:00,
2013-10-20 06:52:00,55.0,54.0,29.96,ESE,106,0.0,2.0,98,0.00,,,0.01,,2013-10-20 11:52:00,
2013-10-20 07:11:00,55.0,54.0,29.97,North,4,0.0,3.0,98,0.00,,,0.01,,2013-10-20 12:11:00,
2013-10-20 07:22:00,55.0,54.0,29.97,SW,228,0.0,2.0,98,0.00,,,0.01,,2013-10-20 12:22:00,
2013-10-20 07:42:00,54.0,53.0,29.98,SE,130,0.0,4.0,98,0.00,,,0.01,,2013-10-20 12:42:00,
2013-10-20 07:52:00,55.0,54.0,29.98,ESE,102,0.0,1.0,98,0.00,,,0.01,,2013-10-20 12:52:00,
2013-10-20 08:11:00,55.0,54.0,29.99,ESE,123,1.0,3.0,98,0.00,,,0.01,,2013-10-20 13:11:00,
2013-10-20 08:22:00,55.0,54.0,30.00,ESE,114,0.0,3.0,98,0.00,,,0.01,,2013-10-20 13:22:00,
2013-10-20 08:42:00,57.0,56.0,30.01,ENE,61,0.0,2.0,98,0.00,,,0.01,,2013-10-20 13:42:00,
2013-10-20 08:52:00,58.0,57.0,30.01,East,101,0.0,1.0,96,0.00,,,0.01,,2013-10-20 13:52:00,
2013-10-20 09:12:00,59.0,57.0,30.01,ESE,110,1.0,5.0,92,0.00,,,0.01,,2013-10-20 14:12:00,
2013-10-20 09:22:00,60.0,57.0,30.01,ESE,122,0.0,3.0,90,0.00,,,0.01,,2013-10-20 14:22:00,
2013-10-20 09:42:00,62.0,58.0,30.01,SE,126,0.0,3.0,87,0.00,,,0.01,,2013-10-20 14:42:00,
2013-10-20 09:52:00,63.0,58.0,30.01,ESE,106,0.0,5.0,84,0.00,,,0.01,,2013-10-20 14:52:00,
2013-10-20 10:11:00,63.0,58.0,30.01,ENE,69,1.0,4.0,83,0.00,,,0.01,,2013-10-20 15:11:00,
2013-10-20 10:22:00,64.0,57.0,30.01,ESE,105,2.0,4.0,79,0.00,,,0.00,,2013-10-20 15:22:00,
2013-10-20 10:44:00,66.0,60.0,30.01,East,96,1.0,5.0,80,0.00,,,0.00,,2013-10-20 15:44:00,
2013-10-20 10:54:00,67.0,59.0,30.01,East,96,0.0,4.0,75,0.00,,,0.00,,2013-10-20 15:54:00,
2013-10-20 11:14:00,69.0,58.0,30.01,ENE,71,1.0,6.0,69,0.00,,,0.00,,2013-10-20 16:14:00,
2013-10-20 11:24:00,69.0,57.0,30.01,NNW,335,2.0,5.0,66,0.00,,,0.00,,2013-10-20 16:24:00,
2013-10-20 11:43:00,70.0,58.0,30.01,East,101,1.0,4.0,65,0.00,,,0.00,,2013-10-20 16:43:00,
2013-10-20 11:54:00,69.0,57.0,30.01,East,82,1.0,5.0,66,0.00,,,0.00,,2013-10-20 16:54:00,
2013-10-20 12:12:00,70.0,57.0,30.01,West,264,1.0,4.0,63,0.00,,,0.00,,2013-10-20 17:12:00,
2013-10-20 12:23:00,71.0,57.0,30.01,East,92,0.0,4.0,61,0.00,,,0.00,,2013-10-20 17:23:00,
2013-10-20 12:42:00,72.0,57.0,30.00,West,264,1.0,5.0,60,0.00,,,0.00,,2013-10-20 17:42:00,
2013-10-20 12:52:00,72.0,58.0,29.99,ESE,114,1.0,5.0,62,0.00,,,0.00,,2013-10-20 17:52:00,
2013-10-20 13:12:00,73.0,58.0,29.99,SSW,206,0.0,3.0,59,0.00,,,0.00,,2013-10-20 18:12:00,
2013-10-20 13:22:00,74.0,59.0,29.98,NE,39,0.0,6.0,59,0.00,,,0.00,,2013-10-20 18:22:00,
2013-10-20 13:42:00,74.0,59.0,29.97,East,90,0.0,4.0,59,0.00,,,0.00,,2013-10-20 18:42:00,
2013-10-20 13:52:00,73.0,58.0,29.96,ENE,72,1.0,5.0,59,0.00,,,0.00,,2013-10-20 18:52:00,
2013-10-20 14:12:00,74.0,58.0,29.96,North,11,0.0,4.0,57,0.00,,,0.00,,2013-10-20 19:12:00,
2013-10-20 14:22:00,74.0,57.0,29.95,NE,54,1.0,3.0,56,0.00,,,0.00,,2013-10-20 19:22:00,
2013-10-20 14:42:00,74.0,57.0,29.95,West,259,0.0,3.0,55,0.00,,,0.00,,2013-10-20 19:42:00,
2013-10-20 14:52:00,75.0,60.0,29.94,WNW,283,1.0,5.0,59,0.00,,,0.00,,2013-10-20 19:52:00,
2013-10-20 15:12:00,75.0,59.0,29.94,NNE,23,0.0,5.0,58,0.00,,,0.00,,2013-10-20 20:12:00,
2013-10-20 15:22:00,76.0,57.0,29.94,NW,316,0.0,3.0,52,0.00,,,0.00,,2013-10-20 20:22:00,
2013-10-20 15:43:00,76.0,56.0,29.94,SSW,206,0.0,2.0,50,0.00,,,0.00,,2013-10-20 20:43:00,
2013-10-20 15:52:00,76.0,57.0,29.94,NNE,30,2.0,6.0,52,0.00,,,0.00,,2013-10-20 20:52:00,
2013-10-20 16:11:00,76.0,59.0,29.94,SW,229,0.0,2.0,55,0.00,,,0.00,,2013-10-20 21:11:00,
2013-10-20 16:22:00,75.0,58.0,29.94,East,88,0.0,5.0,55,0.00,,,0.00,,2013-10-20 21:22:00,
2013-10-20 16:44:00,75.0,59.0,29.94,West,271,0.0,4.0,57,0.00,,,0.00,,2013-10-20 21:44:00,
2013-10-20 16:54:00,73.0,59.0,29.94,ESE,105,0.0,2.0,62,0.00,,,0.00,,2013-10-20 21:54:00,
2013-10-20 17:13:00,74.0,59.0,29.95,NNE,33,0.0,2.0,60,0.00,,,0.00,,2013-10-20 22:13:00,
2013-10-20 17:23:00,74.0,59.0,29.94,NNE,12,0.0,3.0,60,0.00,,,0.00,,2013-10-20 22:23:00,
2013-10-20 17:43:00,73.0,59.0,29.94,East,79,0.0,1.0,61,0.00,,,0.00,,2013-10-20 22:43:00,
2013-10-20 17:53:00,73.0,60.0,29.95,East,101,0.0,0.0,63,0.00,,,0.00,,2013-10-20 22:53:00,
2013-10-20 18:13:00,70.0,59.0,29.95,East,100,0.0,0.0,69,0.00,,,0.00,,2013-10-20 23:13:00,
2013-10-20 18:22:00,67.0,58.0,29.95,East,101,0.0,0.0,74,0.00,,,0.00,,2013-10-20 23:22:00,
2013-10-20 18:43:00,64.0,57.0,29.96,East,101,0.0,0.0,79,0.00,,,0.00,,2013-10-20 23:43:00,
2013-10-20 18:52:00,62.0,57.0,29.95,East,101,0.0,0.0,83,0.00,,,0.00,,2013-10-20 23:52:00,
2013-10-20 19:12:00,61.0,57.0,29.95,East,100,0.0,0.0,86,0.00,,,0.00,,2013-10-21 00:12:00,
2013-10-20 19:22:00,60.0,56.0,29.96,East,100,0.0,0.0,88,0.00,,,0.00,,2013-10-21 00:22:00,
2013-10-20 19:43:00,60.0,57.0,29.97,East,100,0.0,0.0,89,0.00,,,0.00,,2013-10-21 00:43:00,
2013-10-20 19:52:00,60.0,57.0,29.97,East,100,0.0,0.0,90,0.00,,,0.00,,2013-10-21 00:52:00,
2013-10-20 20:12:00,59.0,56.0,29.97,East,100,0.0,0.0,89,0.00,,,0.00,,2013-10-21 01:12:00,
2013-10-20 20:22:00,59.0,56.0,29.97,East,100,0.0,0.0,90,0.00,,,0.00,,2013-10-21 01:22:00,
2013-10-20 20:42:00,58.0,55.0,29.98,East,101,0.0,0.0,91,0.00,,,0.00,,2013-10-21 01:42:00,
2013-10-20 20:52:00,58.0,56.0,29.98,East,101,0.0,0.0,92,0.00,,,0.00,,2013-10-21 01:52:00,
2013-10-20 21:12:00,57.0,55.0,29.98,East,101,0.0,0.0,92,0.00,,,0.00,,2013-10-21 02:12:00,
2013-10-20 21:22:00,57.0,55.0,29.98,East,100,0.0,0.0,92,0.00,,,0.00,,2013-10-21 02:22:00,
2013-10-20 21:42:00,57.0,55.0,29.98,East,100,0.0,0.0,93,0.00,,,0.00,,2013-10-21 02:42:00,
2013-10-20 21:52:00,57.0,55.0,29.98,WSW,252,0.0,0.0,93,0.00,,,0.00,,2013-10-21 02:52:00,
2013-10-20 22:12:00,57.0,55.0,29.98,NW,305,0.0,0.0,93,0.00,,,0.00,,2013-10-21 03:12:00,
2013-10-20 22:22:00,57.0,55.0,29.99,NW,305,0.0,0.0,94,0.00,,,0.00,,2013-10-21 03:22:00,
2013-10-20 22:45:00,57.0,55.0,29.99,NW,305,0.0,0.0,94,0.00,,,0.00,,2013-10-21 03:45:00,
2013-10-20 22:54:00,57.0,55.0,29.99,NW,304,0.0,0.0,94,0.00,,,0.00,,2013-10-21 03:54:00,
2013-10-20 23:14:00,58.0,56.0,29.98,NW,305,0.0,0.0,94,0.00,,,0.00,,2013-10-21 04:14:00,
2013-10-20 23:24:00,58.0,56.0,29.99,WSW,242,0.0,1.0,93,0.00,,,0.00,,2013-10-21 04:24:00,
2013-10-20 23:44:00,58.0,56.0,29.98,SE,146,0.0,0.0,92,0.00,,,0.00,,2013-10-21 04:44:00,
2013-10-20 23:53:00,58.0,56.0,29.98,ESE,108,0.0,1.0,93,0.00,,,0.00,,2013-10-21 04:53:00,